<?xml version="1.0" encoding="UTF-8" standalone="no" ?>
<gpx xmlns="http://www.topografix.com/GPX/1/1" xmlns:xsi="http://www.w3.org/2001/XMLSchema-instance" xsi:schemaLocation="http://www.topografix.com/GPX/1/1 http://www.topografix.com/GPX/1/1/gpx.xsd" version="1.1" creator="VisuGPX - https://www.visugpx.com">
  <metadata>
    <name>Vacances 2021</name>
  </metadata>
  <trk>
    <name><![CDATA[Journal actif: 2021-07-31 10:28]]></name>
    <trkseg>
      <trkpt lat="48.61408" lon="-1.49871">
        <ele>6.39</ele>
        <time>2021-07-31T12:28:35Z</time>
      </trkpt>
      <trkpt lat="48.61403" lon="-1.49864">
        <ele>4.46</ele>
        <time>2021-07-31T12:28:51Z</time>
      </trkpt>
      <trkpt lat="48.61421" lon="-1.49843">
        <ele>4.46</ele>
        <time>2021-07-31T12:29:01Z</time>
      </trkpt>
      <trkpt lat="48.61439" lon="-1.49852">
        <ele>5.42</ele>
        <time>2021-07-31T12:29:17Z</time>
      </trkpt>
      <trkpt lat="48.61441" lon="-1.49854">
        <ele>5.42</ele>
        <time>2021-07-31T12:29:23Z</time>
      </trkpt>
      <trkpt lat="48.61443" lon="-1.49857">
        <ele>5.42</ele>
        <time>2021-07-31T12:29:25Z</time>
      </trkpt>
      <trkpt lat="48.61442" lon="-1.49861">
        <ele>5.42</ele>
        <time>2021-07-31T12:29:26Z</time>
      </trkpt>
      <trkpt lat="48.61441" lon="-1.49866">
        <ele>5.42</ele>
        <time>2021-07-31T12:29:27Z</time>
      </trkpt>
      <trkpt lat="48.6144" lon="-1.49871">
        <ele>5.42</ele>
        <time>2021-07-31T12:29:28Z</time>
      </trkpt>
      <trkpt lat="48.61434" lon="-1.49889">
        <ele>5.42</ele>
        <time>2021-07-31T12:29:31Z</time>
      </trkpt>
      <trkpt lat="48.61432" lon="-1.49895">
        <ele>5.91</ele>
        <time>2021-07-31T12:29:32Z</time>
      </trkpt>
      <trkpt lat="48.61429" lon="-1.49903">
        <ele>5.91</ele>
        <time>2021-07-31T12:29:33Z</time>
      </trkpt>
      <trkpt lat="48.61427" lon="-1.4991">
        <ele>5.91</ele>
        <time>2021-07-31T12:29:34Z</time>
      </trkpt>
      <trkpt lat="48.61423" lon="-1.49915">
        <ele>5.91</ele>
        <time>2021-07-31T12:29:35Z</time>
      </trkpt>
      <trkpt lat="48.61419" lon="-1.49921">
        <ele>5.91</ele>
        <time>2021-07-31T12:29:36Z</time>
      </trkpt>
      <trkpt lat="48.61414" lon="-1.49923">
        <ele>5.91</ele>
        <time>2021-07-31T12:29:37Z</time>
      </trkpt>
      <trkpt lat="48.61408" lon="-1.49924">
        <ele>5.91</ele>
        <time>2021-07-31T12:29:38Z</time>
      </trkpt>
      <trkpt lat="48.61403" lon="-1.49924">
        <ele>5.91</ele>
        <time>2021-07-31T12:29:39Z</time>
      </trkpt>
      <trkpt lat="48.61398" lon="-1.49925">
        <ele>5.91</ele>
        <time>2021-07-31T12:29:40Z</time>
      </trkpt>
      <trkpt lat="48.61393" lon="-1.49922">
        <ele>5.91</ele>
        <time>2021-07-31T12:29:41Z</time>
      </trkpt>
      <trkpt lat="48.61388" lon="-1.4992">
        <ele>5.91</ele>
        <time>2021-07-31T12:29:42Z</time>
      </trkpt>
      <trkpt lat="48.61383" lon="-1.49918">
        <ele>5.91</ele>
        <time>2021-07-31T12:29:43Z</time>
      </trkpt>
      <trkpt lat="48.61303" lon="-1.49864">
        <ele>5.42</ele>
        <time>2021-07-31T12:29:54Z</time>
      </trkpt>
      <trkpt lat="48.61242" lon="-1.49823">
        <ele>6.39</ele>
        <time>2021-07-31T12:30:01Z</time>
      </trkpt>
      <trkpt lat="48.61234" lon="-1.49817">
        <ele>6.87</ele>
        <time>2021-07-31T12:30:02Z</time>
      </trkpt>
      <trkpt lat="48.61226" lon="-1.49815">
        <ele>6.87</ele>
        <time>2021-07-31T12:30:03Z</time>
      </trkpt>
      <trkpt lat="48.61217" lon="-1.49815">
        <ele>6.39</ele>
        <time>2021-07-31T12:30:04Z</time>
      </trkpt>
      <trkpt lat="48.61202" lon="-1.49825">
        <ele>5.91</ele>
        <time>2021-07-31T12:30:05Z</time>
      </trkpt>
      <trkpt lat="48.61195" lon="-1.49831">
        <ele>5.91</ele>
        <time>2021-07-31T12:30:06Z</time>
      </trkpt>
      <trkpt lat="48.61195" lon="-1.49831">
        <ele>5.91</ele>
        <time>2021-07-31T12:30:07Z</time>
      </trkpt>
      <trkpt lat="48.61182" lon="-1.49848">
        <ele>5.91</ele>
        <time>2021-07-31T12:30:08Z</time>
      </trkpt>
      <trkpt lat="48.61128" lon="-1.49969">
        <ele>5.91</ele>
        <time>2021-07-31T12:30:21Z</time>
      </trkpt>
      <trkpt lat="48.61125" lon="-1.49976">
        <ele>5.91</ele>
        <time>2021-07-31T12:30:22Z</time>
      </trkpt>
      <trkpt lat="48.61122" lon="-1.49983">
        <ele>5.91</ele>
        <time>2021-07-31T12:30:23Z</time>
      </trkpt>
      <trkpt lat="48.61124" lon="-1.50008">
        <ele>6.39</ele>
        <time>2021-07-31T12:30:25Z</time>
      </trkpt>
      <trkpt lat="48.61124" lon="-1.50008">
        <ele>6.39</ele>
        <time>2021-07-31T12:30:26Z</time>
      </trkpt>
      <trkpt lat="48.61119" lon="-1.50017">
        <ele>6.39</ele>
        <time>2021-07-31T12:30:27Z</time>
      </trkpt>
      <trkpt lat="48.61103" lon="-1.50021">
        <ele>5.91</ele>
        <time>2021-07-31T12:30:30Z</time>
      </trkpt>
      <trkpt lat="48.611" lon="-1.50028">
        <ele>5.91</ele>
        <time>2021-07-31T12:30:31Z</time>
      </trkpt>
      <trkpt lat="48.61096" lon="-1.50035">
        <ele>5.91</ele>
        <time>2021-07-31T12:30:32Z</time>
      </trkpt>
      <trkpt lat="48.61092" lon="-1.50043">
        <ele>5.91</ele>
        <time>2021-07-31T12:30:33Z</time>
      </trkpt>
      <trkpt lat="48.61087" lon="-1.50051">
        <ele>5.91</ele>
        <time>2021-07-31T12:30:34Z</time>
      </trkpt>
      <trkpt lat="48.61035" lon="-1.50175">
        <ele>6.39</ele>
        <time>2021-07-31T12:30:44Z</time>
      </trkpt>
      <trkpt lat="48.60967" lon="-1.50346">
        <ele>3.98</ele>
        <time>2021-07-31T12:30:54Z</time>
      </trkpt>
      <trkpt lat="48.60967" lon="-1.50346">
        <ele>3.98</ele>
        <time>2021-07-31T12:30:55Z</time>
      </trkpt>
      <trkpt lat="48.60961" lon="-1.50355">
        <ele>3.98</ele>
        <time>2021-07-31T12:30:56Z</time>
      </trkpt>
      <trkpt lat="48.60945" lon="-1.50362">
        <ele>3.98</ele>
        <time>2021-07-31T12:30:57Z</time>
      </trkpt>
      <trkpt lat="48.60935" lon="-1.50363">
        <ele>4.46</ele>
        <time>2021-07-31T12:30:58Z</time>
      </trkpt>
      <trkpt lat="48.60935" lon="-1.50363">
        <ele>4.46</ele>
        <time>2021-07-31T12:30:59Z</time>
      </trkpt>
      <trkpt lat="48.60926" lon="-1.50359">
        <ele>3.98</ele>
        <time>2021-07-31T12:31:00Z</time>
      </trkpt>
      <trkpt lat="48.60917" lon="-1.50355">
        <ele>3.02</ele>
        <time>2021-07-31T12:31:01Z</time>
      </trkpt>
      <trkpt lat="48.60907" lon="-1.5035">
        <ele>3.02</ele>
        <time>2021-07-31T12:31:02Z</time>
      </trkpt>
      <trkpt lat="48.6087" lon="-1.50335">
        <ele>4.46</ele>
        <time>2021-07-31T12:31:06Z</time>
      </trkpt>
      <trkpt lat="48.60861" lon="-1.50336">
        <ele>4.94</ele>
        <time>2021-07-31T12:31:07Z</time>
      </trkpt>
      <trkpt lat="48.60853" lon="-1.50337">
        <ele>4.46</ele>
        <time>2021-07-31T12:31:08Z</time>
      </trkpt>
      <trkpt lat="48.60845" lon="-1.50338">
        <ele>3.98</ele>
        <time>2021-07-31T12:31:09Z</time>
      </trkpt>
      <trkpt lat="48.60837" lon="-1.50343">
        <ele>3.98</ele>
        <time>2021-07-31T12:31:10Z</time>
      </trkpt>
      <trkpt lat="48.60831" lon="-1.50353">
        <ele>3.98</ele>
        <time>2021-07-31T12:31:11Z</time>
      </trkpt>
      <trkpt lat="48.60826" lon="-1.50363">
        <ele>3.98</ele>
        <time>2021-07-31T12:31:12Z</time>
      </trkpt>
      <trkpt lat="48.60821" lon="-1.50373">
        <ele>3.98</ele>
        <time>2021-07-31T12:31:13Z</time>
      </trkpt>
      <trkpt lat="48.6082" lon="-1.50386">
        <ele>3.98</ele>
        <time>2021-07-31T12:31:14Z</time>
      </trkpt>
      <trkpt lat="48.60819" lon="-1.504">
        <ele>3.5</ele>
        <time>2021-07-31T12:31:15Z</time>
      </trkpt>
      <trkpt lat="48.60804" lon="-1.50589">
        <ele>3.98</ele>
        <time>2021-07-31T12:31:26Z</time>
      </trkpt>
      <trkpt lat="48.60797" lon="-1.50832">
        <ele>3.98</ele>
        <time>2021-07-31T12:31:37Z</time>
      </trkpt>
      <trkpt lat="48.60815" lon="-1.50963">
        <ele>3.02</ele>
        <time>2021-07-31T12:31:45Z</time>
      </trkpt>
      <trkpt lat="48.60813" lon="-1.5098">
        <ele>3.02</ele>
        <time>2021-07-31T12:31:46Z</time>
      </trkpt>
      <trkpt lat="48.60812" lon="-1.50991">
        <ele>3.5</ele>
        <time>2021-07-31T12:31:47Z</time>
      </trkpt>
      <trkpt lat="48.60811" lon="-1.51002">
        <ele>3.5</ele>
        <time>2021-07-31T12:31:48Z</time>
      </trkpt>
      <trkpt lat="48.6081" lon="-1.51008">
        <ele>3.98</ele>
        <time>2021-07-31T12:31:49Z</time>
      </trkpt>
      <trkpt lat="48.60806" lon="-1.51015">
        <ele>4.46</ele>
        <time>2021-07-31T12:31:50Z</time>
      </trkpt>
      <trkpt lat="48.60803" lon="-1.51023">
        <ele>4.94</ele>
        <time>2021-07-31T12:31:51Z</time>
      </trkpt>
      <trkpt lat="48.60799" lon="-1.51028">
        <ele>4.94</ele>
        <time>2021-07-31T12:31:52Z</time>
      </trkpt>
      <trkpt lat="48.60791" lon="-1.51032">
        <ele>5.42</ele>
        <time>2021-07-31T12:31:53Z</time>
      </trkpt>
      <trkpt lat="48.60783" lon="-1.51035">
        <ele>4.94</ele>
        <time>2021-07-31T12:31:54Z</time>
      </trkpt>
      <trkpt lat="48.60662" lon="-1.5108">
        <ele>4.94</ele>
        <time>2021-07-31T12:32:05Z</time>
      </trkpt>
      <trkpt lat="48.60416" lon="-1.51165">
        <ele>6.39</ele>
        <time>2021-07-31T12:32:23Z</time>
      </trkpt>
      <trkpt lat="48.60281" lon="-1.5121">
        <ele>5.91</ele>
        <time>2021-07-31T12:32:33Z</time>
      </trkpt>
      <trkpt lat="48.60158" lon="-1.51247">
        <ele>6.87</ele>
        <time>2021-07-31T12:32:47Z</time>
      </trkpt>
      <trkpt lat="48.60064" lon="-1.51276">
        <ele>5.91</ele>
        <time>2021-07-31T12:32:59Z</time>
      </trkpt>
      <trkpt lat="48.59993" lon="-1.51298">
        <ele>6.39</ele>
        <time>2021-07-31T12:33:10Z</time>
      </trkpt>
      <trkpt lat="48.59862" lon="-1.51306">
        <ele>8.79</ele>
        <time>2021-07-31T12:33:24Z</time>
      </trkpt>
      <trkpt lat="48.59782" lon="-1.51302">
        <ele>9.75</ele>
        <time>2021-07-31T12:33:36Z</time>
      </trkpt>
      <trkpt lat="48.59716" lon="-1.51282">
        <ele>9.75</ele>
        <time>2021-07-31T12:33:46Z</time>
      </trkpt>
      <trkpt lat="48.59706" lon="-1.51279">
        <ele>9.27</ele>
        <time>2021-07-31T12:33:59Z</time>
      </trkpt>
      <trkpt lat="48.59706" lon="-1.51279">
        <ele>9.27</ele>
        <time>2021-07-31T12:38:46Z</time>
      </trkpt>
      <trkpt lat="48.59701" lon="-1.51277">
        <ele>9.27</ele>
        <time>2021-07-31T12:38:47Z</time>
      </trkpt>
      <trkpt lat="48.59701" lon="-1.51277">
        <ele>9.27</ele>
        <time>2021-07-31T12:38:48Z</time>
      </trkpt>
      <trkpt lat="48.59695" lon="-1.51275">
        <ele>9.27</ele>
        <time>2021-07-31T12:38:49Z</time>
      </trkpt>
      <trkpt lat="48.59695" lon="-1.51275">
        <ele>9.27</ele>
        <time>2021-07-31T12:38:50Z</time>
      </trkpt>
      <trkpt lat="48.59618" lon="-1.51252">
        <ele>9.75</ele>
        <time>2021-07-31T12:39:02Z</time>
      </trkpt>
      <trkpt lat="48.59475" lon="-1.51218">
        <ele>11.19</ele>
        <time>2021-07-31T12:39:22Z</time>
      </trkpt>
      <trkpt lat="48.59406" lon="-1.51177">
        <ele>10.71</ele>
        <time>2021-07-31T12:39:33Z</time>
      </trkpt>
      <trkpt lat="48.59355" lon="-1.51133">
        <ele>10.71</ele>
        <time>2021-07-31T12:39:42Z</time>
      </trkpt>
      <trkpt lat="48.59294" lon="-1.5108">
        <ele>10.71</ele>
        <time>2021-07-31T12:39:53Z</time>
      </trkpt>
      <trkpt lat="48.59178" lon="-1.51032">
        <ele>11.19</ele>
        <time>2021-07-31T12:40:03Z</time>
      </trkpt>
      <trkpt lat="48.59005" lon="-1.50997">
        <ele>13.6</ele>
        <time>2021-07-31T12:40:17Z</time>
      </trkpt>
      <trkpt lat="48.58848" lon="-1.51029">
        <ele>14.56</ele>
        <time>2021-07-31T12:40:28Z</time>
      </trkpt>
      <trkpt lat="48.58552" lon="-1.51103">
        <ele>13.12</ele>
        <time>2021-07-31T12:40:47Z</time>
      </trkpt>
      <trkpt lat="48.58433" lon="-1.51132">
        <ele>16</ele>
        <time>2021-07-31T12:40:57Z</time>
      </trkpt>
      <trkpt lat="48.58401" lon="-1.5114">
        <ele>16.48</ele>
        <time>2021-07-31T12:41:02Z</time>
      </trkpt>
      <trkpt lat="48.58395" lon="-1.51141">
        <ele>16</ele>
        <time>2021-07-31T12:41:03Z</time>
      </trkpt>
      <trkpt lat="48.58391" lon="-1.51142">
        <ele>16</ele>
        <time>2021-07-31T12:41:04Z</time>
      </trkpt>
      <trkpt lat="48.58387" lon="-1.51143">
        <ele>15.52</ele>
        <time>2021-07-31T12:41:05Z</time>
      </trkpt>
      <trkpt lat="48.5838" lon="-1.51132">
        <ele>15.52</ele>
        <time>2021-07-31T12:41:06Z</time>
      </trkpt>
      <trkpt lat="48.58378" lon="-1.51124">
        <ele>15.52</ele>
        <time>2021-07-31T12:41:07Z</time>
      </trkpt>
      <trkpt lat="48.58377" lon="-1.51116">
        <ele>15.52</ele>
        <time>2021-07-31T12:41:08Z</time>
      </trkpt>
      <trkpt lat="48.58368" lon="-1.51069">
        <ele>16.48</ele>
        <time>2021-07-31T12:41:12Z</time>
      </trkpt>
      <trkpt lat="48.58368" lon="-1.51069">
        <ele>16.48</ele>
        <time>2021-07-31T12:41:13Z</time>
      </trkpt>
      <trkpt lat="48.58367" lon="-1.51058">
        <ele>16.96</ele>
        <time>2021-07-31T12:41:14Z</time>
      </trkpt>
      <trkpt lat="48.58376" lon="-1.50874">
        <ele>22.25</ele>
        <time>2021-07-31T12:41:27Z</time>
      </trkpt>
      <trkpt lat="48.58387" lon="-1.50643">
        <ele>32.82</ele>
        <time>2021-07-31T12:41:44Z</time>
      </trkpt>
      <trkpt lat="48.58392" lon="-1.50528">
        <ele>32.82</ele>
        <time>2021-07-31T12:41:54Z</time>
      </trkpt>
      <trkpt lat="48.58392" lon="-1.50522">
        <ele>32.82</ele>
        <time>2021-07-31T12:41:55Z</time>
      </trkpt>
      <trkpt lat="48.58392" lon="-1.50522">
        <ele>32.82</ele>
        <time>2021-07-31T12:41:56Z</time>
      </trkpt>
      <trkpt lat="48.58392" lon="-1.50517">
        <ele>32.82</ele>
        <time>2021-07-31T12:41:57Z</time>
      </trkpt>
      <trkpt lat="48.584" lon="-1.50518">
        <ele>32.82</ele>
        <time>2021-07-31T12:41:58Z</time>
      </trkpt>
      <trkpt lat="48.58403" lon="-1.50519">
        <ele>32.82</ele>
        <time>2021-07-31T12:41:59Z</time>
      </trkpt>
      <trkpt lat="48.58403" lon="-1.50519">
        <ele>32.82</ele>
        <time>2021-07-31T12:42:00Z</time>
      </trkpt>
      <trkpt lat="48.58408" lon="-1.50521">
        <ele>32.82</ele>
        <time>2021-07-31T12:42:01Z</time>
      </trkpt>
      <trkpt lat="48.58486" lon="-1.5055">
        <ele>34.74</ele>
        <time>2021-07-31T12:42:14Z</time>
      </trkpt>
      <trkpt lat="48.58535" lon="-1.50565">
        <ele>35.71</ele>
        <time>2021-07-31T12:42:24Z</time>
      </trkpt>
      <trkpt lat="48.58537" lon="-1.50565">
        <ele>35.71</ele>
        <time>2021-07-31T12:42:29Z</time>
      </trkpt>
      <trkpt lat="48.58541" lon="-1.50566">
        <ele>35.23</ele>
        <time>2021-07-31T12:42:30Z</time>
      </trkpt>
      <trkpt lat="48.58541" lon="-1.50566">
        <ele>35.23</ele>
        <time>2021-07-31T12:42:31Z</time>
      </trkpt>
      <trkpt lat="48.58543" lon="-1.50553">
        <ele>34.74</ele>
        <time>2021-07-31T12:42:32Z</time>
      </trkpt>
      <trkpt lat="48.58541" lon="-1.50488">
        <ele>32.82</ele>
        <time>2021-07-31T12:42:46Z</time>
      </trkpt>
      <trkpt lat="48.58541" lon="-1.5047">
        <ele>32.34</ele>
        <time>2021-07-31T12:42:56Z</time>
      </trkpt>
      <trkpt lat="48.58542" lon="-1.50468">
        <ele>32.34</ele>
        <time>2021-07-31T12:42:57Z</time>
      </trkpt>
      <trkpt lat="48.58547" lon="-1.50465">
        <ele>31.86</ele>
        <time>2021-07-31T12:43:09Z</time>
      </trkpt>
      <trkpt lat="48.58548" lon="-1.50465">
        <ele>31.86</ele>
        <time>2021-07-31T12:45:41Z</time>
      </trkpt>
      <trkpt lat="48.58548" lon="-1.50465">
        <ele>31.86</ele>
        <time>2021-07-31T12:52:54Z</time>
      </trkpt>
      <trkpt lat="48.58548" lon="-1.50465">
        <ele>31.86</ele>
        <time>2021-07-31T13:02:28Z</time>
      </trkpt>
      <trkpt lat="48.58548" lon="-1.50465">
        <ele>31.38</ele>
        <time>2021-07-31T13:20:54Z</time>
      </trkpt>
      <trkpt lat="48.58549" lon="-1.50466">
        <ele>31.86</ele>
        <time>2021-07-31T13:25:20Z</time>
      </trkpt>
      <trkpt lat="48.58546" lon="-1.50469">
        <ele>31.38</ele>
        <time>2021-07-31T13:25:40Z</time>
      </trkpt>
      <trkpt lat="48.58543" lon="-1.50468">
        <ele>31.86</ele>
        <time>2021-07-31T13:26:04Z</time>
      </trkpt>
      <trkpt lat="48.58541" lon="-1.50521">
        <ele>32.34</ele>
        <time>2021-07-31T13:26:16Z</time>
      </trkpt>
      <trkpt lat="48.5854" lon="-1.5056">
        <ele>33.3</ele>
        <time>2021-07-31T13:26:27Z</time>
      </trkpt>
      <trkpt lat="48.58536" lon="-1.50565">
        <ele>33.78</ele>
        <time>2021-07-31T13:26:31Z</time>
      </trkpt>
      <trkpt lat="48.58534" lon="-1.50564">
        <ele>33.78</ele>
        <time>2021-07-31T13:26:32Z</time>
      </trkpt>
      <trkpt lat="48.58531" lon="-1.50563">
        <ele>33.78</ele>
        <time>2021-07-31T13:26:33Z</time>
      </trkpt>
      <trkpt lat="48.58516" lon="-1.5056">
        <ele>33.3</ele>
        <time>2021-07-31T13:26:36Z</time>
      </trkpt>
      <trkpt lat="48.58459" lon="-1.5054">
        <ele>32.34</ele>
        <time>2021-07-31T13:26:46Z</time>
      </trkpt>
      <trkpt lat="48.58405" lon="-1.5052">
        <ele>30.9</ele>
        <time>2021-07-31T13:26:58Z</time>
      </trkpt>
      <trkpt lat="48.58397" lon="-1.50517">
        <ele>30.9</ele>
        <time>2021-07-31T13:26:59Z</time>
      </trkpt>
      <trkpt lat="48.58392" lon="-1.50524">
        <ele>30.9</ele>
        <time>2021-07-31T13:27:00Z</time>
      </trkpt>
      <trkpt lat="48.58392" lon="-1.50536">
        <ele>30.9</ele>
        <time>2021-07-31T13:27:02Z</time>
      </trkpt>
      <trkpt lat="48.58389" lon="-1.50597">
        <ele>30.42</ele>
        <time>2021-07-31T13:27:14Z</time>
      </trkpt>
      <trkpt lat="48.58384" lon="-1.50703">
        <ele>26.57</ele>
        <time>2021-07-31T13:27:25Z</time>
      </trkpt>
      <trkpt lat="48.58373" lon="-1.50924">
        <ele>14.56</ele>
        <time>2021-07-31T13:27:39Z</time>
      </trkpt>
      <trkpt lat="48.58367" lon="-1.51062">
        <ele>8.79</ele>
        <time>2021-07-31T13:27:50Z</time>
      </trkpt>
      <trkpt lat="48.58369" lon="-1.51074">
        <ele>8.31</ele>
        <time>2021-07-31T13:27:51Z</time>
      </trkpt>
      <trkpt lat="48.58371" lon="-1.51086">
        <ele>8.31</ele>
        <time>2021-07-31T13:27:52Z</time>
      </trkpt>
      <trkpt lat="48.5838" lon="-1.51132">
        <ele>9.27</ele>
        <time>2021-07-31T13:27:59Z</time>
      </trkpt>
      <trkpt lat="48.58381" lon="-1.51136">
        <ele>8.79</ele>
        <time>2021-07-31T13:28:16Z</time>
      </trkpt>
      <trkpt lat="48.58382" lon="-1.51142">
        <ele>8.79</ele>
        <time>2021-07-31T13:28:26Z</time>
      </trkpt>
      <trkpt lat="48.58382" lon="-1.51144">
        <ele>8.79</ele>
        <time>2021-07-31T13:28:27Z</time>
      </trkpt>
      <trkpt lat="48.58382" lon="-1.51144">
        <ele>8.79</ele>
        <time>2021-07-31T13:28:28Z</time>
      </trkpt>
      <trkpt lat="48.58379" lon="-1.51144">
        <ele>8.79</ele>
        <time>2021-07-31T13:28:29Z</time>
      </trkpt>
      <trkpt lat="48.58375" lon="-1.51145">
        <ele>8.79</ele>
        <time>2021-07-31T13:28:30Z</time>
      </trkpt>
      <trkpt lat="48.5837" lon="-1.51146">
        <ele>8.79</ele>
        <time>2021-07-31T13:28:31Z</time>
      </trkpt>
      <trkpt lat="48.58296" lon="-1.51159">
        <ele>10.23</ele>
        <time>2021-07-31T13:28:40Z</time>
      </trkpt>
      <trkpt lat="48.58148" lon="-1.51184">
        <ele>8.79</ele>
        <time>2021-07-31T13:28:52Z</time>
      </trkpt>
      <trkpt lat="48.57907" lon="-1.51222">
        <ele>9.75</ele>
        <time>2021-07-31T13:29:09Z</time>
      </trkpt>
      <trkpt lat="48.57637" lon="-1.51253">
        <ele>8.31</ele>
        <time>2021-07-31T13:29:27Z</time>
      </trkpt>
      <trkpt lat="48.57211" lon="-1.51267">
        <ele>9.27</ele>
        <time>2021-07-31T13:29:54Z</time>
      </trkpt>
      <trkpt lat="48.56861" lon="-1.51279">
        <ele>9.27</ele>
        <time>2021-07-31T13:30:14Z</time>
      </trkpt>
      <trkpt lat="48.56583" lon="-1.51263">
        <ele>11.19</ele>
        <time>2021-07-31T13:30:29Z</time>
      </trkpt>
      <trkpt lat="48.5647" lon="-1.51205">
        <ele>14.56</ele>
        <time>2021-07-31T13:30:36Z</time>
      </trkpt>
      <trkpt lat="48.56333" lon="-1.5107">
        <ele>18.88</ele>
        <time>2021-07-31T13:30:46Z</time>
      </trkpt>
      <trkpt lat="48.5621" lon="-1.50972">
        <ele>18.4</ele>
        <time>2021-07-31T13:30:55Z</time>
      </trkpt>
      <trkpt lat="48.56077" lon="-1.50941">
        <ele>10.71</ele>
        <time>2021-07-31T13:31:04Z</time>
      </trkpt>
      <trkpt lat="48.55907" lon="-1.50929">
        <ele>12.15</ele>
        <time>2021-07-31T13:31:18Z</time>
      </trkpt>
      <trkpt lat="48.55808" lon="-1.50928">
        <ele>11.67</ele>
        <time>2021-07-31T13:31:30Z</time>
      </trkpt>
      <trkpt lat="48.55751" lon="-1.50936">
        <ele>12.63</ele>
        <time>2021-07-31T13:31:42Z</time>
      </trkpt>
      <trkpt lat="48.55748" lon="-1.50938">
        <ele>12.63</ele>
        <time>2021-07-31T13:31:43Z</time>
      </trkpt>
      <trkpt lat="48.55744" lon="-1.50943">
        <ele>12.63</ele>
        <time>2021-07-31T13:31:44Z</time>
      </trkpt>
      <trkpt lat="48.55708" lon="-1.51029">
        <ele>11.67</ele>
        <time>2021-07-31T13:31:53Z</time>
      </trkpt>
      <trkpt lat="48.55618" lon="-1.5114">
        <ele>11.67</ele>
        <time>2021-07-31T13:32:04Z</time>
      </trkpt>
      <trkpt lat="48.55493" lon="-1.51234">
        <ele>11.19</ele>
        <time>2021-07-31T13:32:19Z</time>
      </trkpt>
      <trkpt lat="48.55388" lon="-1.5126">
        <ele>11.67</ele>
        <time>2021-07-31T13:32:32Z</time>
      </trkpt>
      <trkpt lat="48.55309" lon="-1.51277">
        <ele>12.15</ele>
        <time>2021-07-31T13:32:43Z</time>
      </trkpt>
      <trkpt lat="48.55291" lon="-1.51288">
        <ele>11.67</ele>
        <time>2021-07-31T13:32:49Z</time>
      </trkpt>
      <trkpt lat="48.55283" lon="-1.51293">
        <ele>12.15</ele>
        <time>2021-07-31T13:32:57Z</time>
      </trkpt>
      <trkpt lat="48.55267" lon="-1.51314">
        <ele>12.15</ele>
        <time>2021-07-31T13:33:01Z</time>
      </trkpt>
      <trkpt lat="48.55267" lon="-1.51314">
        <ele>12.15</ele>
        <time>2021-07-31T13:33:02Z</time>
      </trkpt>
      <trkpt lat="48.55266" lon="-1.51322">
        <ele>12.15</ele>
        <time>2021-07-31T13:33:03Z</time>
      </trkpt>
      <trkpt lat="48.55265" lon="-1.5133">
        <ele>12.15</ele>
        <time>2021-07-31T13:33:04Z</time>
      </trkpt>
      <trkpt lat="48.55264" lon="-1.51339">
        <ele>12.15</ele>
        <time>2021-07-31T13:33:05Z</time>
      </trkpt>
      <trkpt lat="48.55262" lon="-1.51348">
        <ele>12.15</ele>
        <time>2021-07-31T13:33:06Z</time>
      </trkpt>
      <trkpt lat="48.55244" lon="-1.51493">
        <ele>14.08</ele>
        <time>2021-07-31T13:33:17Z</time>
      </trkpt>
      <trkpt lat="48.55231" lon="-1.51605">
        <ele>14.08</ele>
        <time>2021-07-31T13:33:26Z</time>
      </trkpt>
      <trkpt lat="48.5523" lon="-1.51612">
        <ele>13.6</ele>
        <time>2021-07-31T13:33:27Z</time>
      </trkpt>
      <trkpt lat="48.55234" lon="-1.5162">
        <ele>13.12</ele>
        <time>2021-07-31T13:33:28Z</time>
      </trkpt>
      <trkpt lat="48.55239" lon="-1.51624">
        <ele>12.63</ele>
        <time>2021-07-31T13:33:29Z</time>
      </trkpt>
      <trkpt lat="48.55243" lon="-1.51628">
        <ele>12.63</ele>
        <time>2021-07-31T13:33:30Z</time>
      </trkpt>
      <trkpt lat="48.55309" lon="-1.51693">
        <ele>8.79</ele>
        <time>2021-07-31T13:33:39Z</time>
      </trkpt>
      <trkpt lat="48.55386" lon="-1.51772">
        <ele>8.79</ele>
        <time>2021-07-31T13:33:46Z</time>
      </trkpt>
      <trkpt lat="48.55397" lon="-1.51785">
        <ele>8.79</ele>
        <time>2021-07-31T13:33:47Z</time>
      </trkpt>
      <trkpt lat="48.55406" lon="-1.51802">
        <ele>8.31</ele>
        <time>2021-07-31T13:33:48Z</time>
      </trkpt>
      <trkpt lat="48.55415" lon="-1.5182">
        <ele>9.27</ele>
        <time>2021-07-31T13:33:49Z</time>
      </trkpt>
      <trkpt lat="48.55424" lon="-1.51837">
        <ele>8.79</ele>
        <time>2021-07-31T13:33:50Z</time>
      </trkpt>
      <trkpt lat="48.55505" lon="-1.52068">
        <ele>10.23</ele>
        <time>2021-07-31T13:34:02Z</time>
      </trkpt>
      <trkpt lat="48.55573" lon="-1.52242">
        <ele>10.71</ele>
        <time>2021-07-31T13:34:12Z</time>
      </trkpt>
      <trkpt lat="48.55629" lon="-1.52413">
        <ele>12.15</ele>
        <time>2021-07-31T13:34:21Z</time>
      </trkpt>
      <trkpt lat="48.55665" lon="-1.52597">
        <ele>10.71</ele>
        <time>2021-07-31T13:34:30Z</time>
      </trkpt>
      <trkpt lat="48.55746" lon="-1.52748">
        <ele>11.19</ele>
        <time>2021-07-31T13:34:39Z</time>
      </trkpt>
      <trkpt lat="48.55913" lon="-1.52906">
        <ele>11.67</ele>
        <time>2021-07-31T13:34:52Z</time>
      </trkpt>
      <trkpt lat="48.56029" lon="-1.53028">
        <ele>12.63</ele>
        <time>2021-07-31T13:35:04Z</time>
      </trkpt>
      <trkpt lat="48.56036" lon="-1.53036">
        <ele>13.6</ele>
        <time>2021-07-31T13:35:05Z</time>
      </trkpt>
      <trkpt lat="48.56041" lon="-1.53044">
        <ele>14.56</ele>
        <time>2021-07-31T13:35:06Z</time>
      </trkpt>
      <trkpt lat="48.56067" lon="-1.53048">
        <ele>13.6</ele>
        <time>2021-07-31T13:35:09Z</time>
      </trkpt>
      <trkpt lat="48.56077" lon="-1.53061">
        <ele>13.6</ele>
        <time>2021-07-31T13:35:10Z</time>
      </trkpt>
      <trkpt lat="48.56077" lon="-1.53061">
        <ele>14.08</ele>
        <time>2021-07-31T13:35:11Z</time>
      </trkpt>
      <trkpt lat="48.56079" lon="-1.5307">
        <ele>14.08</ele>
        <time>2021-07-31T13:35:12Z</time>
      </trkpt>
      <trkpt lat="48.56079" lon="-1.53075">
        <ele>14.56</ele>
        <time>2021-07-31T13:35:13Z</time>
      </trkpt>
      <trkpt lat="48.56079" lon="-1.53075">
        <ele>15.04</ele>
        <time>2021-07-31T13:35:14Z</time>
      </trkpt>
      <trkpt lat="48.56085" lon="-1.53105">
        <ele>15.04</ele>
        <time>2021-07-31T13:35:15Z</time>
      </trkpt>
      <trkpt lat="48.56154" lon="-1.5321">
        <ele>16</ele>
        <time>2021-07-31T13:35:25Z</time>
      </trkpt>
      <trkpt lat="48.5622" lon="-1.53306">
        <ele>15.52</ele>
        <time>2021-07-31T13:35:34Z</time>
      </trkpt>
      <trkpt lat="48.56224" lon="-1.53313">
        <ele>15.52</ele>
        <time>2021-07-31T13:35:35Z</time>
      </trkpt>
      <trkpt lat="48.56231" lon="-1.53324">
        <ele>15.04</ele>
        <time>2021-07-31T13:35:36Z</time>
      </trkpt>
      <trkpt lat="48.56241" lon="-1.53324">
        <ele>15.04</ele>
        <time>2021-07-31T13:35:37Z</time>
      </trkpt>
      <trkpt lat="48.56248" lon="-1.5332">
        <ele>15.04</ele>
        <time>2021-07-31T13:35:39Z</time>
      </trkpt>
      <trkpt lat="48.56255" lon="-1.53324">
        <ele>15.04</ele>
        <time>2021-07-31T13:35:40Z</time>
      </trkpt>
      <trkpt lat="48.56261" lon="-1.53327">
        <ele>15.04</ele>
        <time>2021-07-31T13:35:41Z</time>
      </trkpt>
      <trkpt lat="48.56265" lon="-1.5334">
        <ele>15.52</ele>
        <time>2021-07-31T13:35:42Z</time>
      </trkpt>
      <trkpt lat="48.56266" lon="-1.53351">
        <ele>15.52</ele>
        <time>2021-07-31T13:35:43Z</time>
      </trkpt>
      <trkpt lat="48.56266" lon="-1.53358">
        <ele>15.52</ele>
        <time>2021-07-31T13:35:44Z</time>
      </trkpt>
      <trkpt lat="48.56257" lon="-1.5337">
        <ele>15.52</ele>
        <time>2021-07-31T13:35:45Z</time>
      </trkpt>
      <trkpt lat="48.56257" lon="-1.5337">
        <ele>15.04</ele>
        <time>2021-07-31T13:35:46Z</time>
      </trkpt>
      <trkpt lat="48.56254" lon="-1.53374">
        <ele>14.56</ele>
        <time>2021-07-31T13:35:47Z</time>
      </trkpt>
      <trkpt lat="48.56249" lon="-1.53375">
        <ele>14.08</ele>
        <time>2021-07-31T13:35:48Z</time>
      </trkpt>
      <trkpt lat="48.56244" lon="-1.53373">
        <ele>14.08</ele>
        <time>2021-07-31T13:35:49Z</time>
      </trkpt>
      <trkpt lat="48.5623" lon="-1.53368">
        <ele>14.08</ele>
        <time>2021-07-31T13:35:52Z</time>
      </trkpt>
      <trkpt lat="48.56216" lon="-1.53373">
        <ele>13.6</ele>
        <time>2021-07-31T13:35:53Z</time>
      </trkpt>
      <trkpt lat="48.56207" lon="-1.53376">
        <ele>12.63</ele>
        <time>2021-07-31T13:35:54Z</time>
      </trkpt>
      <trkpt lat="48.56197" lon="-1.5338">
        <ele>10.23</ele>
        <time>2021-07-31T13:35:55Z</time>
      </trkpt>
      <trkpt lat="48.56189" lon="-1.53392">
        <ele>9.75</ele>
        <time>2021-07-31T13:35:56Z</time>
      </trkpt>
      <trkpt lat="48.56181" lon="-1.53405">
        <ele>8.79</ele>
        <time>2021-07-31T13:35:57Z</time>
      </trkpt>
      <trkpt lat="48.56176" lon="-1.53419">
        <ele>8.79</ele>
        <time>2021-07-31T13:35:58Z</time>
      </trkpt>
      <trkpt lat="48.56173" lon="-1.53434">
        <ele>8.79</ele>
        <time>2021-07-31T13:35:59Z</time>
      </trkpt>
      <trkpt lat="48.56172" lon="-1.53451">
        <ele>9.75</ele>
        <time>2021-07-31T13:36:00Z</time>
      </trkpt>
      <trkpt lat="48.56171" lon="-1.53469">
        <ele>10.71</ele>
        <time>2021-07-31T13:36:01Z</time>
      </trkpt>
      <trkpt lat="48.56172" lon="-1.53688">
        <ele>14.56</ele>
        <time>2021-07-31T13:36:12Z</time>
      </trkpt>
      <trkpt lat="48.56194" lon="-1.54045">
        <ele>16</ele>
        <time>2021-07-31T13:36:26Z</time>
      </trkpt>
      <trkpt lat="48.56223" lon="-1.54403">
        <ele>16</ele>
        <time>2021-07-31T13:36:39Z</time>
      </trkpt>
      <trkpt lat="48.5629" lon="-1.54941">
        <ele>20.32</ele>
        <time>2021-07-31T13:36:57Z</time>
      </trkpt>
      <trkpt lat="48.56378" lon="-1.55487">
        <ele>28.02</ele>
        <time>2021-07-31T13:37:16Z</time>
      </trkpt>
      <trkpt lat="48.56459" lon="-1.55887">
        <ele>32.34</ele>
        <time>2021-07-31T13:37:29Z</time>
      </trkpt>
      <trkpt lat="48.56569" lon="-1.56443">
        <ele>42.92</ele>
        <time>2021-07-31T13:37:45Z</time>
      </trkpt>
      <trkpt lat="48.56644" lon="-1.56939">
        <ele>65.51</ele>
        <time>2021-07-31T13:37:59Z</time>
      </trkpt>
      <trkpt lat="48.56687" lon="-1.57453">
        <ele>77.04</ele>
        <time>2021-07-31T13:38:14Z</time>
      </trkpt>
      <trkpt lat="48.56696" lon="-1.5806">
        <ele>73.68</ele>
        <time>2021-07-31T13:38:30Z</time>
      </trkpt>
      <trkpt lat="48.56678" lon="-1.58463">
        <ele>72.24</ele>
        <time>2021-07-31T13:38:42Z</time>
      </trkpt>
      <trkpt lat="48.56632" lon="-1.59066">
        <ele>72.24</ele>
        <time>2021-07-31T13:38:59Z</time>
      </trkpt>
      <trkpt lat="48.56571" lon="-1.59805">
        <ele>70.31</ele>
        <time>2021-07-31T13:39:20Z</time>
      </trkpt>
      <trkpt lat="48.56512" lon="-1.60533">
        <ele>80.41</ele>
        <time>2021-07-31T13:39:41Z</time>
      </trkpt>
      <trkpt lat="48.56439" lon="-1.61222">
        <ele>87.62</ele>
        <time>2021-07-31T13:40:01Z</time>
      </trkpt>
      <trkpt lat="48.56331" lon="-1.61934">
        <ele>91.94</ele>
        <time>2021-07-31T13:40:21Z</time>
      </trkpt>
      <trkpt lat="48.56297" lon="-1.624">
        <ele>97.23</ele>
        <time>2021-07-31T13:40:34Z</time>
      </trkpt>
      <trkpt lat="48.56306" lon="-1.62861">
        <ele>97.23</ele>
        <time>2021-07-31T13:40:47Z</time>
      </trkpt>
      <trkpt lat="48.5636" lon="-1.63512">
        <ele>92.9</ele>
        <time>2021-07-31T13:41:05Z</time>
      </trkpt>
      <trkpt lat="48.56369" lon="-1.64029">
        <ele>91.94</ele>
        <time>2021-07-31T13:41:19Z</time>
      </trkpt>
      <trkpt lat="48.56369" lon="-1.65029">
        <ele>87.14</ele>
        <time>2021-07-31T13:41:46Z</time>
      </trkpt>
      <trkpt lat="48.56368" lon="-1.65867">
        <ele>86.66</ele>
        <time>2021-07-31T13:42:09Z</time>
      </trkpt>
      <trkpt lat="48.56353" lon="-1.66527">
        <ele>78.97</ele>
        <time>2021-07-31T13:42:27Z</time>
      </trkpt>
      <trkpt lat="48.56308" lon="-1.67202">
        <ele>68.87</ele>
        <time>2021-07-31T13:42:45Z</time>
      </trkpt>
      <trkpt lat="48.56236" lon="-1.67877">
        <ele>72.72</ele>
        <time>2021-07-31T13:43:04Z</time>
      </trkpt>
      <trkpt lat="48.56128" lon="-1.68559">
        <ele>68.39</ele>
        <time>2021-07-31T13:43:22Z</time>
      </trkpt>
      <trkpt lat="48.5599" lon="-1.69245">
        <ele>58.3</ele>
        <time>2021-07-31T13:43:42Z</time>
      </trkpt>
      <trkpt lat="48.55841" lon="-1.69971">
        <ele>49.65</ele>
        <time>2021-07-31T13:44:02Z</time>
      </trkpt>
      <trkpt lat="48.55718" lon="-1.70633">
        <ele>42.92</ele>
        <time>2021-07-31T13:44:20Z</time>
      </trkpt>
      <trkpt lat="48.55615" lon="-1.71367">
        <ele>36.19</ele>
        <time>2021-07-31T13:44:40Z</time>
      </trkpt>
      <trkpt lat="48.55564" lon="-1.71941">
        <ele>30.42</ele>
        <time>2021-07-31T13:44:56Z</time>
      </trkpt>
      <trkpt lat="48.55537" lon="-1.72523">
        <ele>23.21</ele>
        <time>2021-07-31T13:45:12Z</time>
      </trkpt>
      <trkpt lat="48.55515" lon="-1.73147">
        <ele>13.12</ele>
        <time>2021-07-31T13:45:29Z</time>
      </trkpt>
      <trkpt lat="48.55498" lon="-1.73628">
        <ele>9.75</ele>
        <time>2021-07-31T13:45:42Z</time>
      </trkpt>
      <trkpt lat="48.5548" lon="-1.74181">
        <ele>7.35</ele>
        <time>2021-07-31T13:45:58Z</time>
      </trkpt>
      <trkpt lat="48.55448" lon="-1.74923">
        <ele>3.5</ele>
        <time>2021-07-31T13:46:19Z</time>
      </trkpt>
      <trkpt lat="48.55403" lon="-1.75403">
        <ele>7.35</ele>
        <time>2021-07-31T13:46:33Z</time>
      </trkpt>
      <trkpt lat="48.55332" lon="-1.75924">
        <ele>11.19</ele>
        <time>2021-07-31T13:46:49Z</time>
      </trkpt>
      <trkpt lat="48.55239" lon="-1.76445">
        <ele>9.75</ele>
        <time>2021-07-31T13:47:04Z</time>
      </trkpt>
      <trkpt lat="48.55097" lon="-1.77232">
        <ele>5.91</ele>
        <time>2021-07-31T13:47:26Z</time>
      </trkpt>
      <trkpt lat="48.54983" lon="-1.77942">
        <ele>4.94</ele>
        <time>2021-07-31T13:47:46Z</time>
      </trkpt>
      <trkpt lat="48.54897" lon="-1.78731">
        <ele>6.87</ele>
        <time>2021-07-31T13:48:08Z</time>
      </trkpt>
      <trkpt lat="48.54849" lon="-1.79465">
        <ele>7.35</ele>
        <time>2021-07-31T13:48:28Z</time>
      </trkpt>
      <trkpt lat="48.54808" lon="-1.8061">
        <ele>6.39</ele>
        <time>2021-07-31T13:48:59Z</time>
      </trkpt>
      <trkpt lat="48.54787" lon="-1.81262">
        <ele>11.19</ele>
        <time>2021-07-31T13:49:17Z</time>
      </trkpt>
      <trkpt lat="48.54761" lon="-1.82051">
        <ele>16</ele>
        <time>2021-07-31T13:49:38Z</time>
      </trkpt>
      <trkpt lat="48.54737" lon="-1.82764">
        <ele>14.08</ele>
        <time>2021-07-31T13:49:59Z</time>
      </trkpt>
      <trkpt lat="48.54716" lon="-1.83364">
        <ele>7.35</ele>
        <time>2021-07-31T13:50:15Z</time>
      </trkpt>
      <trkpt lat="48.5466" lon="-1.84116">
        <ele>1.58</ele>
        <time>2021-07-31T13:50:35Z</time>
      </trkpt>
      <trkpt lat="48.54592" lon="-1.84763">
        <ele>3.98</ele>
        <time>2021-07-31T13:50:53Z</time>
      </trkpt>
      <trkpt lat="48.54518" lon="-1.85424">
        <ele>9.27</ele>
        <time>2021-07-31T13:51:12Z</time>
      </trkpt>
      <trkpt lat="48.54459" lon="-1.85946">
        <ele>10.71</ele>
        <time>2021-07-31T13:51:29Z</time>
      </trkpt>
      <trkpt lat="48.54408" lon="-1.86527">
        <ele>6.39</ele>
        <time>2021-07-31T13:51:45Z</time>
      </trkpt>
      <trkpt lat="48.54375" lon="-1.87146">
        <ele>11.19</ele>
        <time>2021-07-31T13:52:02Z</time>
      </trkpt>
      <trkpt lat="48.54355" lon="-1.87673">
        <ele>14.56</ele>
        <time>2021-07-31T13:52:17Z</time>
      </trkpt>
      <trkpt lat="48.54353" lon="-1.88705">
        <ele>20.32</ele>
        <time>2021-07-31T13:52:45Z</time>
      </trkpt>
      <trkpt lat="48.54354" lon="-1.89014">
        <ele>20.81</ele>
        <time>2021-07-31T13:52:54Z</time>
      </trkpt>
      <trkpt lat="48.54354" lon="-1.89108">
        <ele>22.25</ele>
        <time>2021-07-31T13:52:59Z</time>
      </trkpt>
      <trkpt lat="48.54358" lon="-1.89235">
        <ele>23.69</ele>
        <time>2021-07-31T13:53:15Z</time>
      </trkpt>
      <trkpt lat="48.54361" lon="-1.89329">
        <ele>23.69</ele>
        <time>2021-07-31T13:53:26Z</time>
      </trkpt>
      <trkpt lat="48.54362" lon="-1.89335">
        <ele>23.69</ele>
        <time>2021-07-31T13:53:37Z</time>
      </trkpt>
      <trkpt lat="48.54363" lon="-1.89379">
        <ele>23.69</ele>
        <time>2021-07-31T13:54:10Z</time>
      </trkpt>
      <trkpt lat="48.54366" lon="-1.89466">
        <ele>23.69</ele>
        <time>2021-07-31T13:54:24Z</time>
      </trkpt>
      <trkpt lat="48.54368" lon="-1.89535">
        <ele>23.21</ele>
        <time>2021-07-31T13:54:39Z</time>
      </trkpt>
      <trkpt lat="48.5437" lon="-1.89577">
        <ele>22.73</ele>
        <time>2021-07-31T13:55:17Z</time>
      </trkpt>
      <trkpt lat="48.54372" lon="-1.89638">
        <ele>22.25</ele>
        <time>2021-07-31T13:55:36Z</time>
      </trkpt>
      <trkpt lat="48.54373" lon="-1.8967">
        <ele>22.25</ele>
        <time>2021-07-31T13:56:01Z</time>
      </trkpt>
      <trkpt lat="48.54376" lon="-1.89754">
        <ele>21.29</ele>
        <time>2021-07-31T13:56:23Z</time>
      </trkpt>
      <trkpt lat="48.54378" lon="-1.89811">
        <ele>20.81</ele>
        <time>2021-07-31T13:56:36Z</time>
      </trkpt>
      <trkpt lat="48.5438" lon="-1.89855">
        <ele>20.32</ele>
        <time>2021-07-31T13:56:53Z</time>
      </trkpt>
      <trkpt lat="48.54381" lon="-1.89876">
        <ele>20.32</ele>
        <time>2021-07-31T13:57:34Z</time>
      </trkpt>
      <trkpt lat="48.54382" lon="-1.89888">
        <ele>20.32</ele>
        <time>2021-07-31T13:58:13Z</time>
      </trkpt>
      <trkpt lat="48.54382" lon="-1.89888">
        <ele>20.32</ele>
        <time>2021-07-31T13:58:39Z</time>
      </trkpt>
      <trkpt lat="48.54383" lon="-1.89916">
        <ele>19.84</ele>
        <time>2021-07-31T13:58:58Z</time>
      </trkpt>
      <trkpt lat="48.54385" lon="-1.89941">
        <ele>19.84</ele>
        <time>2021-07-31T13:59:14Z</time>
      </trkpt>
      <trkpt lat="48.54386" lon="-1.89952">
        <ele>19.36</ele>
        <time>2021-07-31T13:59:43Z</time>
      </trkpt>
      <trkpt lat="48.54389" lon="-1.90009">
        <ele>18.88</ele>
        <time>2021-07-31T14:00:01Z</time>
      </trkpt>
      <trkpt lat="48.5439" lon="-1.90035">
        <ele>18.4</ele>
        <time>2021-07-31T14:00:19Z</time>
      </trkpt>
      <trkpt lat="48.54392" lon="-1.90058">
        <ele>18.4</ele>
        <time>2021-07-31T14:00:54Z</time>
      </trkpt>
      <trkpt lat="48.54392" lon="-1.90068">
        <ele>18.4</ele>
        <time>2021-07-31T14:01:15Z</time>
      </trkpt>
      <trkpt lat="48.54396" lon="-1.90135">
        <ele>17.44</ele>
        <time>2021-07-31T14:01:42Z</time>
      </trkpt>
      <trkpt lat="48.54398" lon="-1.90165">
        <ele>17.44</ele>
        <time>2021-07-31T14:02:15Z</time>
      </trkpt>
      <trkpt lat="48.54399" lon="-1.90179">
        <ele>17.44</ele>
        <time>2021-07-31T14:02:34Z</time>
      </trkpt>
      <trkpt lat="48.54399" lon="-1.90179">
        <ele>17.44</ele>
        <time>2021-07-31T14:03:39Z</time>
      </trkpt>
      <trkpt lat="48.544" lon="-1.90197">
        <ele>16.96</ele>
        <time>2021-07-31T14:04:21Z</time>
      </trkpt>
      <trkpt lat="48.544" lon="-1.90197">
        <ele>16.96</ele>
        <time>2021-07-31T14:05:51Z</time>
      </trkpt>
      <trkpt lat="48.54401" lon="-1.90218">
        <ele>16.96</ele>
        <time>2021-07-31T14:06:16Z</time>
      </trkpt>
      <trkpt lat="48.54402" lon="-1.90223">
        <ele>16.48</ele>
        <time>2021-07-31T14:06:35Z</time>
      </trkpt>
      <trkpt lat="48.54402" lon="-1.90231">
        <ele>16.48</ele>
        <time>2021-07-31T14:06:55Z</time>
      </trkpt>
      <trkpt lat="48.54404" lon="-1.90257">
        <ele>16.48</ele>
        <time>2021-07-31T14:07:08Z</time>
      </trkpt>
      <trkpt lat="48.54406" lon="-1.90284">
        <ele>16</ele>
        <time>2021-07-31T14:07:23Z</time>
      </trkpt>
      <trkpt lat="48.54408" lon="-1.90322">
        <ele>15.52</ele>
        <time>2021-07-31T14:07:37Z</time>
      </trkpt>
      <trkpt lat="48.5441" lon="-1.90358">
        <ele>15.04</ele>
        <time>2021-07-31T14:07:52Z</time>
      </trkpt>
      <trkpt lat="48.54414" lon="-1.9042">
        <ele>14.56</ele>
        <time>2021-07-31T14:08:10Z</time>
      </trkpt>
      <trkpt lat="48.54419" lon="-1.90496">
        <ele>13.6</ele>
        <time>2021-07-31T14:08:29Z</time>
      </trkpt>
      <trkpt lat="48.54423" lon="-1.90556">
        <ele>12.63</ele>
        <time>2021-07-31T14:08:45Z</time>
      </trkpt>
      <trkpt lat="48.54427" lon="-1.90618">
        <ele>12.15</ele>
        <time>2021-07-31T14:09:02Z</time>
      </trkpt>
      <trkpt lat="48.54431" lon="-1.9068">
        <ele>11.67</ele>
        <time>2021-07-31T14:09:23Z</time>
      </trkpt>
      <trkpt lat="48.54436" lon="-1.90761">
        <ele>11.67</ele>
        <time>2021-07-31T14:09:40Z</time>
      </trkpt>
      <trkpt lat="48.5444" lon="-1.90817">
        <ele>11.19</ele>
        <time>2021-07-31T14:09:55Z</time>
      </trkpt>
      <trkpt lat="48.54444" lon="-1.90885">
        <ele>10.71</ele>
        <time>2021-07-31T14:10:09Z</time>
      </trkpt>
      <trkpt lat="48.54451" lon="-1.90999">
        <ele>11.19</ele>
        <time>2021-07-31T14:10:27Z</time>
      </trkpt>
      <trkpt lat="48.54456" lon="-1.91075">
        <ele>11.67</ele>
        <time>2021-07-31T14:10:43Z</time>
      </trkpt>
      <trkpt lat="48.54466" lon="-1.91309">
        <ele>13.6</ele>
        <time>2021-07-31T14:11:08Z</time>
      </trkpt>
      <trkpt lat="48.54469" lon="-1.91483">
        <ele>15.04</ele>
        <time>2021-07-31T14:11:23Z</time>
      </trkpt>
      <trkpt lat="48.54472" lon="-1.91685">
        <ele>17.92</ele>
        <time>2021-07-31T14:11:33Z</time>
      </trkpt>
      <trkpt lat="48.54492" lon="-1.91936">
        <ele>20.32</ele>
        <time>2021-07-31T14:11:45Z</time>
      </trkpt>
      <trkpt lat="48.54545" lon="-1.92078">
        <ele>18.4</ele>
        <time>2021-07-31T14:11:52Z</time>
      </trkpt>
      <trkpt lat="48.54664" lon="-1.92285">
        <ele>20.81</ele>
        <time>2021-07-31T14:12:03Z</time>
      </trkpt>
      <trkpt lat="48.54678" lon="-1.92299">
        <ele>21.29</ele>
        <time>2021-07-31T14:12:04Z</time>
      </trkpt>
      <trkpt lat="48.54691" lon="-1.92312">
        <ele>21.77</ele>
        <time>2021-07-31T14:12:05Z</time>
      </trkpt>
      <trkpt lat="48.54707" lon="-1.92323">
        <ele>21.77</ele>
        <time>2021-07-31T14:12:06Z</time>
      </trkpt>
      <trkpt lat="48.54723" lon="-1.92333">
        <ele>22.25</ele>
        <time>2021-07-31T14:12:07Z</time>
      </trkpt>
      <trkpt lat="48.54943" lon="-1.92444">
        <ele>21.77</ele>
        <time>2021-07-31T14:12:18Z</time>
      </trkpt>
      <trkpt lat="48.55199" lon="-1.92566">
        <ele>16.96</ele>
        <time>2021-07-31T14:12:30Z</time>
      </trkpt>
      <trkpt lat="48.55384" lon="-1.92692">
        <ele>12.63</ele>
        <time>2021-07-31T14:12:40Z</time>
      </trkpt>
      <trkpt lat="48.55646" lon="-1.92873">
        <ele>9.75</ele>
        <time>2021-07-31T14:12:54Z</time>
      </trkpt>
      <trkpt lat="48.55799" lon="-1.9289">
        <ele>5.91</ele>
        <time>2021-07-31T14:13:01Z</time>
      </trkpt>
      <trkpt lat="48.55943" lon="-1.9283">
        <ele>7.35</ele>
        <time>2021-07-31T14:13:08Z</time>
      </trkpt>
      <trkpt lat="48.56235" lon="-1.92598">
        <ele>11.19</ele>
        <time>2021-07-31T14:13:24Z</time>
      </trkpt>
      <trkpt lat="48.5638" lon="-1.92529">
        <ele>11.19</ele>
        <time>2021-07-31T14:13:31Z</time>
      </trkpt>
      <trkpt lat="48.56529" lon="-1.92544">
        <ele>10.23</ele>
        <time>2021-07-31T14:13:38Z</time>
      </trkpt>
      <trkpt lat="48.56645" lon="-1.92625">
        <ele>14.56</ele>
        <time>2021-07-31T14:13:44Z</time>
      </trkpt>
      <trkpt lat="48.56751" lon="-1.92774">
        <ele>18.4</ele>
        <time>2021-07-31T14:13:51Z</time>
      </trkpt>
      <trkpt lat="48.56925" lon="-1.93065">
        <ele>16.48</ele>
        <time>2021-07-31T14:14:02Z</time>
      </trkpt>
      <trkpt lat="48.57119" lon="-1.93324">
        <ele>8.79</ele>
        <time>2021-07-31T14:14:14Z</time>
      </trkpt>
      <trkpt lat="48.57327" lon="-1.93705">
        <ele>12.63</ele>
        <time>2021-07-31T14:14:27Z</time>
      </trkpt>
      <trkpt lat="48.57495" lon="-1.94024">
        <ele>30.9</ele>
        <time>2021-07-31T14:14:41Z</time>
      </trkpt>
      <trkpt lat="48.57667" lon="-1.94351">
        <ele>40.03</ele>
        <time>2021-07-31T14:14:55Z</time>
      </trkpt>
      <trkpt lat="48.57877" lon="-1.94736">
        <ele>40.51</ele>
        <time>2021-07-31T14:15:10Z</time>
      </trkpt>
      <trkpt lat="48.58025" lon="-1.94918">
        <ele>31.38</ele>
        <time>2021-07-31T14:15:18Z</time>
      </trkpt>
      <trkpt lat="48.58207" lon="-1.95046">
        <ele>28.02</ele>
        <time>2021-07-31T14:15:26Z</time>
      </trkpt>
      <trkpt lat="48.5839" lon="-1.95161">
        <ele>39.55</ele>
        <time>2021-07-31T14:15:35Z</time>
      </trkpt>
      <trkpt lat="48.58661" lon="-1.9534">
        <ele>43.88</ele>
        <time>2021-07-31T14:15:50Z</time>
      </trkpt>
      <trkpt lat="48.58828" lon="-1.95513">
        <ele>37.15</ele>
        <time>2021-07-31T14:15:59Z</time>
      </trkpt>
      <trkpt lat="48.59078" lon="-1.95821">
        <ele>22.25</ele>
        <time>2021-07-31T14:16:11Z</time>
      </trkpt>
      <trkpt lat="48.59417" lon="-1.96224">
        <ele>16</ele>
        <time>2021-07-31T14:16:27Z</time>
      </trkpt>
      <trkpt lat="48.59683" lon="-1.96484">
        <ele>27.53</ele>
        <time>2021-07-31T14:16:39Z</time>
      </trkpt>
      <trkpt lat="48.60055" lon="-1.96867">
        <ele>28.5</ele>
        <time>2021-07-31T14:16:59Z</time>
      </trkpt>
      <trkpt lat="48.60352" lon="-1.97242">
        <ele>33.78</ele>
        <time>2021-07-31T14:17:16Z</time>
      </trkpt>
      <trkpt lat="48.60685" lon="-1.97685">
        <ele>48.2</ele>
        <time>2021-07-31T14:17:37Z</time>
      </trkpt>
      <trkpt lat="48.60903" lon="-1.97922">
        <ele>53.01</ele>
        <time>2021-07-31T14:17:50Z</time>
      </trkpt>
      <trkpt lat="48.61184" lon="-1.98144">
        <ele>42.44</ele>
        <time>2021-07-31T14:18:05Z</time>
      </trkpt>
      <trkpt lat="48.61498" lon="-1.98375">
        <ele>28.98</ele>
        <time>2021-07-31T14:18:25Z</time>
      </trkpt>
      <trkpt lat="48.61808" lon="-1.98605">
        <ele>28.02</ele>
        <time>2021-07-31T14:18:42Z</time>
      </trkpt>
      <trkpt lat="48.61963" lon="-1.98754">
        <ele>28.98</ele>
        <time>2021-07-31T14:18:51Z</time>
      </trkpt>
      <trkpt lat="48.62077" lon="-1.989">
        <ele>27.53</ele>
        <time>2021-07-31T14:19:00Z</time>
      </trkpt>
      <trkpt lat="48.62077" lon="-1.989">
        <ele>27.05</ele>
        <time>2021-07-31T14:19:01Z</time>
      </trkpt>
      <trkpt lat="48.62106" lon="-1.98916">
        <ele>26.09</ele>
        <time>2021-07-31T14:19:02Z</time>
      </trkpt>
      <trkpt lat="48.62106" lon="-1.98916">
        <ele>26.09</ele>
        <time>2021-07-31T14:19:03Z</time>
      </trkpt>
      <trkpt lat="48.62139" lon="-1.98921">
        <ele>27.05</ele>
        <time>2021-07-31T14:19:04Z</time>
      </trkpt>
      <trkpt lat="48.62139" lon="-1.98921">
        <ele>28.02</ele>
        <time>2021-07-31T14:19:05Z</time>
      </trkpt>
      <trkpt lat="48.6217" lon="-1.98913">
        <ele>28.98</ele>
        <time>2021-07-31T14:19:06Z</time>
      </trkpt>
      <trkpt lat="48.62186" lon="-1.98909">
        <ele>29.94</ele>
        <time>2021-07-31T14:19:07Z</time>
      </trkpt>
      <trkpt lat="48.6231" lon="-1.98877">
        <ele>32.34</ele>
        <time>2021-07-31T14:19:18Z</time>
      </trkpt>
      <trkpt lat="48.62401" lon="-1.98871">
        <ele>31.38</ele>
        <time>2021-07-31T14:19:28Z</time>
      </trkpt>
      <trkpt lat="48.62447" lon="-1.98868">
        <ele>32.82</ele>
        <time>2021-07-31T14:19:40Z</time>
      </trkpt>
      <trkpt lat="48.62479" lon="-1.98866">
        <ele>33.78</ele>
        <time>2021-07-31T14:19:50Z</time>
      </trkpt>
      <trkpt lat="48.62509" lon="-1.98864">
        <ele>35.23</ele>
        <time>2021-07-31T14:20:03Z</time>
      </trkpt>
      <trkpt lat="48.62544" lon="-1.98859">
        <ele>35.71</ele>
        <time>2021-07-31T14:20:16Z</time>
      </trkpt>
      <trkpt lat="48.62554" lon="-1.98855">
        <ele>35.71</ele>
        <time>2021-07-31T14:20:17Z</time>
      </trkpt>
      <trkpt lat="48.62554" lon="-1.98855">
        <ele>36.19</ele>
        <time>2021-07-31T14:20:18Z</time>
      </trkpt>
      <trkpt lat="48.62572" lon="-1.98833">
        <ele>36.67</ele>
        <time>2021-07-31T14:20:21Z</time>
      </trkpt>
      <trkpt lat="48.62578" lon="-1.98827">
        <ele>37.15</ele>
        <time>2021-07-31T14:20:22Z</time>
      </trkpt>
      <trkpt lat="48.62591" lon="-1.98816">
        <ele>37.15</ele>
        <time>2021-07-31T14:20:23Z</time>
      </trkpt>
      <trkpt lat="48.62591" lon="-1.98816">
        <ele>37.63</ele>
        <time>2021-07-31T14:20:24Z</time>
      </trkpt>
      <trkpt lat="48.62606" lon="-1.98816">
        <ele>37.63</ele>
        <time>2021-07-31T14:20:25Z</time>
      </trkpt>
      <trkpt lat="48.62606" lon="-1.98816">
        <ele>38.11</ele>
        <time>2021-07-31T14:20:26Z</time>
      </trkpt>
      <trkpt lat="48.62614" lon="-1.98816">
        <ele>38.11</ele>
        <time>2021-07-31T14:20:27Z</time>
      </trkpt>
      <trkpt lat="48.62629" lon="-1.98826">
        <ele>38.11</ele>
        <time>2021-07-31T14:20:28Z</time>
      </trkpt>
      <trkpt lat="48.62629" lon="-1.98826">
        <ele>37.63</ele>
        <time>2021-07-31T14:20:29Z</time>
      </trkpt>
      <trkpt lat="48.62636" lon="-1.98836">
        <ele>37.15</ele>
        <time>2021-07-31T14:20:30Z</time>
      </trkpt>
      <trkpt lat="48.62642" lon="-1.98848">
        <ele>36.67</ele>
        <time>2021-07-31T14:20:31Z</time>
      </trkpt>
      <trkpt lat="48.62655" lon="-1.98861">
        <ele>37.15</ele>
        <time>2021-07-31T14:20:32Z</time>
      </trkpt>
      <trkpt lat="48.62655" lon="-1.98861">
        <ele>37.15</ele>
        <time>2021-07-31T14:20:33Z</time>
      </trkpt>
      <trkpt lat="48.62661" lon="-1.98864">
        <ele>37.15</ele>
        <time>2021-07-31T14:20:34Z</time>
      </trkpt>
      <trkpt lat="48.62666" lon="-1.98868">
        <ele>37.15</ele>
        <time>2021-07-31T14:20:35Z</time>
      </trkpt>
      <trkpt lat="48.62671" lon="-1.9887">
        <ele>37.15</ele>
        <time>2021-07-31T14:20:36Z</time>
      </trkpt>
      <trkpt lat="48.62675" lon="-1.98872">
        <ele>36.67</ele>
        <time>2021-07-31T14:20:37Z</time>
      </trkpt>
      <trkpt lat="48.6268" lon="-1.98873">
        <ele>36.19</ele>
        <time>2021-07-31T14:20:38Z</time>
      </trkpt>
      <trkpt lat="48.62742" lon="-1.98876">
        <ele>32.34</ele>
        <time>2021-07-31T14:20:45Z</time>
      </trkpt>
      <trkpt lat="48.62956" lon="-1.98894">
        <ele>12.63</ele>
        <time>2021-07-31T14:21:02Z</time>
      </trkpt>
      <trkpt lat="48.63138" lon="-1.98911">
        <ele>8.31</ele>
        <time>2021-07-31T14:21:17Z</time>
      </trkpt>
      <trkpt lat="48.63193" lon="-1.98916">
        <ele>6.39</ele>
        <time>2021-07-31T14:21:25Z</time>
      </trkpt>
      <trkpt lat="48.63266" lon="-1.98924">
        <ele>11.19</ele>
        <time>2021-07-31T14:21:36Z</time>
      </trkpt>
      <trkpt lat="48.63394" lon="-1.98937">
        <ele>10.23</ele>
        <time>2021-07-31T14:21:47Z</time>
      </trkpt>
      <trkpt lat="48.63528" lon="-1.98957">
        <ele>3.02</ele>
        <time>2021-07-31T14:21:59Z</time>
      </trkpt>
      <trkpt lat="48.63552" lon="-1.98965">
        <ele>3.02</ele>
        <time>2021-07-31T14:22:02Z</time>
      </trkpt>
      <trkpt lat="48.63568" lon="-1.98961">
        <ele>2.54</ele>
        <time>2021-07-31T14:22:03Z</time>
      </trkpt>
      <trkpt lat="48.63575" lon="-1.98958">
        <ele>2.54</ele>
        <time>2021-07-31T14:22:04Z</time>
      </trkpt>
      <trkpt lat="48.63582" lon="-1.98955">
        <ele>2.06</ele>
        <time>2021-07-31T14:22:05Z</time>
      </trkpt>
      <trkpt lat="48.63589" lon="-1.98953">
        <ele>2.54</ele>
        <time>2021-07-31T14:22:06Z</time>
      </trkpt>
      <trkpt lat="48.63595" lon="-1.9895">
        <ele>2.54</ele>
        <time>2021-07-31T14:22:07Z</time>
      </trkpt>
      <trkpt lat="48.63601" lon="-1.98947">
        <ele>2.54</ele>
        <time>2021-07-31T14:22:08Z</time>
      </trkpt>
      <trkpt lat="48.63603" lon="-1.98947">
        <ele>2.54</ele>
        <time>2021-07-31T14:22:09Z</time>
      </trkpt>
      <trkpt lat="48.63614" lon="-1.98939">
        <ele>1.58</ele>
        <time>2021-07-31T14:22:10Z</time>
      </trkpt>
      <trkpt lat="48.63619" lon="-1.98946">
        <ele>1.1</ele>
        <time>2021-07-31T14:22:11Z</time>
      </trkpt>
      <trkpt lat="48.63625" lon="-1.98951">
        <ele>0.62</ele>
        <time>2021-07-31T14:22:12Z</time>
      </trkpt>
      <trkpt lat="48.63625" lon="-1.98951">
        <ele>0.14</ele>
        <time>2021-07-31T14:22:14Z</time>
      </trkpt>
      <trkpt lat="48.63639" lon="-1.98962">
        <ele>0.14</ele>
        <time>2021-07-31T14:22:15Z</time>
      </trkpt>
      <trkpt lat="48.63767" lon="-1.98981">
        <ele>-0.34</ele>
        <time>2021-07-31T14:22:31Z</time>
      </trkpt>
      <trkpt lat="48.63794" lon="-1.98983">
        <ele>1.1</ele>
        <time>2021-07-31T14:22:37Z</time>
      </trkpt>
      <trkpt lat="48.63799" lon="-1.98983">
        <ele>1.1</ele>
        <time>2021-07-31T14:22:38Z</time>
      </trkpt>
      <trkpt lat="48.6381" lon="-1.98978">
        <ele>1.1</ele>
        <time>2021-07-31T14:22:40Z</time>
      </trkpt>
      <trkpt lat="48.63815" lon="-1.98977">
        <ele>1.1</ele>
        <time>2021-07-31T14:22:41Z</time>
      </trkpt>
      <trkpt lat="48.63824" lon="-1.9898">
        <ele>0.62</ele>
        <time>2021-07-31T14:22:42Z</time>
      </trkpt>
      <trkpt lat="48.63828" lon="-1.98986">
        <ele>0.14</ele>
        <time>2021-07-31T14:22:44Z</time>
      </trkpt>
      <trkpt lat="48.63835" lon="-1.98987">
        <ele>-0.34</ele>
        <time>2021-07-31T14:22:45Z</time>
      </trkpt>
      <trkpt lat="48.63918" lon="-1.99001">
        <ele>-0.34</ele>
        <time>2021-07-31T14:22:56Z</time>
      </trkpt>
      <trkpt lat="48.64015" lon="-1.99012">
        <ele>-1.3</ele>
        <time>2021-07-31T14:23:09Z</time>
      </trkpt>
      <trkpt lat="48.64063" lon="-1.99018">
        <ele>2.06</ele>
        <time>2021-07-31T14:23:17Z</time>
      </trkpt>
      <trkpt lat="48.64068" lon="-1.99018">
        <ele>2.06</ele>
        <time>2021-07-31T14:23:20Z</time>
      </trkpt>
      <trkpt lat="48.64082" lon="-1.99001">
        <ele>2.06</ele>
        <time>2021-07-31T14:23:21Z</time>
      </trkpt>
      <trkpt lat="48.64091" lon="-1.99006">
        <ele>2.06</ele>
        <time>2021-07-31T14:23:22Z</time>
      </trkpt>
      <trkpt lat="48.64094" lon="-1.99009">
        <ele>2.06</ele>
        <time>2021-07-31T14:23:23Z</time>
      </trkpt>
      <trkpt lat="48.64104" lon="-1.99021">
        <ele>1.58</ele>
        <time>2021-07-31T14:23:24Z</time>
      </trkpt>
      <trkpt lat="48.64122" lon="-1.99021">
        <ele>2.54</ele>
        <time>2021-07-31T14:23:25Z</time>
      </trkpt>
      <trkpt lat="48.64131" lon="-1.99022">
        <ele>2.54</ele>
        <time>2021-07-31T14:23:26Z</time>
      </trkpt>
      <trkpt lat="48.64264" lon="-1.99035">
        <ele>3.98</ele>
        <time>2021-07-31T14:23:37Z</time>
      </trkpt>
      <trkpt lat="48.64417" lon="-1.99032">
        <ele>2.06</ele>
        <time>2021-07-31T14:23:48Z</time>
      </trkpt>
      <trkpt lat="48.64528" lon="-1.98986">
        <ele>-1.3</ele>
        <time>2021-07-31T14:23:57Z</time>
      </trkpt>
      <trkpt lat="48.64549" lon="-1.98967">
        <ele>-2.27</ele>
        <time>2021-07-31T14:24:04Z</time>
      </trkpt>
      <trkpt lat="48.64586" lon="-1.98933">
        <ele>-7.55</ele>
        <time>2021-07-31T14:24:15Z</time>
      </trkpt>
      <trkpt lat="48.64635" lon="-1.98865">
        <ele>-7.55</ele>
        <time>2021-07-31T14:24:23Z</time>
      </trkpt>
      <trkpt lat="48.64711" lon="-1.98688">
        <ele>-11.4</ele>
        <time>2021-07-31T14:24:34Z</time>
      </trkpt>
      <trkpt lat="48.64739" lon="-1.98588">
        <ele>-5.63</ele>
        <time>2021-07-31T14:24:42Z</time>
      </trkpt>
      <trkpt lat="48.64753" lon="-1.98513">
        <ele>-0.82</ele>
        <time>2021-07-31T14:24:55Z</time>
      </trkpt>
      <trkpt lat="48.64759" lon="-1.98464">
        <ele>2.06</ele>
        <time>2021-07-31T14:25:07Z</time>
      </trkpt>
      <trkpt lat="48.64762" lon="-1.98435">
        <ele>3.02</ele>
        <time>2021-07-31T14:25:10Z</time>
      </trkpt>
      <trkpt lat="48.64763" lon="-1.98427">
        <ele>3.5</ele>
        <time>2021-07-31T14:25:11Z</time>
      </trkpt>
      <trkpt lat="48.64761" lon="-1.98419">
        <ele>3.5</ele>
        <time>2021-07-31T14:25:12Z</time>
      </trkpt>
      <trkpt lat="48.64759" lon="-1.98411">
        <ele>3.98</ele>
        <time>2021-07-31T14:25:13Z</time>
      </trkpt>
      <trkpt lat="48.64758" lon="-1.98404">
        <ele>3.98</ele>
        <time>2021-07-31T14:25:14Z</time>
      </trkpt>
      <trkpt lat="48.64757" lon="-1.98397">
        <ele>4.46</ele>
        <time>2021-07-31T14:25:15Z</time>
      </trkpt>
      <trkpt lat="48.64761" lon="-1.98387">
        <ele>5.42</ele>
        <time>2021-07-31T14:25:16Z</time>
      </trkpt>
      <trkpt lat="48.64761" lon="-1.98387">
        <ele>5.42</ele>
        <time>2021-07-31T14:25:17Z</time>
      </trkpt>
      <trkpt lat="48.64767" lon="-1.98376">
        <ele>5.42</ele>
        <time>2021-07-31T14:25:18Z</time>
      </trkpt>
      <trkpt lat="48.64773" lon="-1.9836">
        <ele>5.42</ele>
        <time>2021-07-31T14:25:20Z</time>
      </trkpt>
      <trkpt lat="48.64775" lon="-1.98349">
        <ele>5.42</ele>
        <time>2021-07-31T14:25:21Z</time>
      </trkpt>
      <trkpt lat="48.64777" lon="-1.98337">
        <ele>5.42</ele>
        <time>2021-07-31T14:25:22Z</time>
      </trkpt>
      <trkpt lat="48.64796" lon="-1.98188">
        <ele>8.79</ele>
        <time>2021-07-31T14:25:32Z</time>
      </trkpt>
      <trkpt lat="48.64841" lon="-1.97945">
        <ele>12.15</ele>
        <time>2021-07-31T14:25:43Z</time>
      </trkpt>
      <trkpt lat="48.6488" lon="-1.97793">
        <ele>16.48</ele>
        <time>2021-07-31T14:25:52Z</time>
      </trkpt>
      <trkpt lat="48.64887" lon="-1.97766">
        <ele>17.44</ele>
        <time>2021-07-31T14:25:55Z</time>
      </trkpt>
      <trkpt lat="48.64889" lon="-1.9775">
        <ele>17.44</ele>
        <time>2021-07-31T14:25:56Z</time>
      </trkpt>
      <trkpt lat="48.64886" lon="-1.97743">
        <ele>17.92</ele>
        <time>2021-07-31T14:25:57Z</time>
      </trkpt>
      <trkpt lat="48.64884" lon="-1.97723">
        <ele>17.92</ele>
        <time>2021-07-31T14:25:59Z</time>
      </trkpt>
      <trkpt lat="48.64884" lon="-1.97723">
        <ele>17.92</ele>
        <time>2021-07-31T14:26:00Z</time>
      </trkpt>
      <trkpt lat="48.64887" lon="-1.97716">
        <ele>18.4</ele>
        <time>2021-07-31T14:26:01Z</time>
      </trkpt>
      <trkpt lat="48.64904" lon="-1.97699">
        <ele>18.4</ele>
        <time>2021-07-31T14:26:03Z</time>
      </trkpt>
      <trkpt lat="48.64904" lon="-1.97699">
        <ele>18.4</ele>
        <time>2021-07-31T14:26:04Z</time>
      </trkpt>
      <trkpt lat="48.64907" lon="-1.97689">
        <ele>18.4</ele>
        <time>2021-07-31T14:26:05Z</time>
      </trkpt>
      <trkpt lat="48.64946" lon="-1.9755">
        <ele>16.48</ele>
        <time>2021-07-31T14:26:16Z</time>
      </trkpt>
      <trkpt lat="48.65004" lon="-1.97338">
        <ele>16</ele>
        <time>2021-07-31T14:26:27Z</time>
      </trkpt>
      <trkpt lat="48.65068" lon="-1.97175">
        <ele>18.4</ele>
        <time>2021-07-31T14:26:36Z</time>
      </trkpt>
      <trkpt lat="48.65091" lon="-1.97124">
        <ele>20.81</ele>
        <time>2021-07-31T14:26:43Z</time>
      </trkpt>
      <trkpt lat="48.65098" lon="-1.97109">
        <ele>23.69</ele>
        <time>2021-07-31T14:26:49Z</time>
      </trkpt>
      <trkpt lat="48.65101" lon="-1.97104">
        <ele>23.21</ele>
        <time>2021-07-31T14:26:50Z</time>
      </trkpt>
      <trkpt lat="48.65104" lon="-1.97097">
        <ele>22.25</ele>
        <time>2021-07-31T14:26:51Z</time>
      </trkpt>
      <trkpt lat="48.65107" lon="-1.97091">
        <ele>21.77</ele>
        <time>2021-07-31T14:26:52Z</time>
      </trkpt>
      <trkpt lat="48.6511" lon="-1.97071">
        <ele>21.29</ele>
        <time>2021-07-31T14:26:54Z</time>
      </trkpt>
      <trkpt lat="48.65113" lon="-1.97049">
        <ele>21.29</ele>
        <time>2021-07-31T14:26:55Z</time>
      </trkpt>
      <trkpt lat="48.65113" lon="-1.97049">
        <ele>21.29</ele>
        <time>2021-07-31T14:26:56Z</time>
      </trkpt>
      <trkpt lat="48.65119" lon="-1.97042">
        <ele>22.25</ele>
        <time>2021-07-31T14:26:57Z</time>
      </trkpt>
      <trkpt lat="48.65126" lon="-1.97039">
        <ele>22.25</ele>
        <time>2021-07-31T14:26:58Z</time>
      </trkpt>
      <trkpt lat="48.65133" lon="-1.97038">
        <ele>22.73</ele>
        <time>2021-07-31T14:26:59Z</time>
      </trkpt>
      <trkpt lat="48.65138" lon="-1.97042">
        <ele>22.73</ele>
        <time>2021-07-31T14:27:00Z</time>
      </trkpt>
      <trkpt lat="48.65144" lon="-1.97049">
        <ele>22.73</ele>
        <time>2021-07-31T14:27:01Z</time>
      </trkpt>
      <trkpt lat="48.6515" lon="-1.97057">
        <ele>22.25</ele>
        <time>2021-07-31T14:27:02Z</time>
      </trkpt>
      <trkpt lat="48.65152" lon="-1.97065">
        <ele>21.77</ele>
        <time>2021-07-31T14:27:03Z</time>
      </trkpt>
      <trkpt lat="48.65154" lon="-1.97087">
        <ele>21.77</ele>
        <time>2021-07-31T14:27:04Z</time>
      </trkpt>
      <trkpt lat="48.65156" lon="-1.97099">
        <ele>21.77</ele>
        <time>2021-07-31T14:27:05Z</time>
      </trkpt>
      <trkpt lat="48.65156" lon="-1.97099">
        <ele>22.25</ele>
        <time>2021-07-31T14:27:06Z</time>
      </trkpt>
      <trkpt lat="48.65159" lon="-1.97112">
        <ele>22.73</ele>
        <time>2021-07-31T14:27:07Z</time>
      </trkpt>
      <trkpt lat="48.65163" lon="-1.97126">
        <ele>22.25</ele>
        <time>2021-07-31T14:27:08Z</time>
      </trkpt>
      <trkpt lat="48.6522" lon="-1.97261">
        <ele>28.02</ele>
        <time>2021-07-31T14:27:17Z</time>
      </trkpt>
      <trkpt lat="48.65225" lon="-1.97272">
        <ele>28.98</ele>
        <time>2021-07-31T14:27:18Z</time>
      </trkpt>
      <trkpt lat="48.6523" lon="-1.9728">
        <ele>30.42</ele>
        <time>2021-07-31T14:27:19Z</time>
      </trkpt>
      <trkpt lat="48.65234" lon="-1.97287">
        <ele>31.38</ele>
        <time>2021-07-31T14:27:20Z</time>
      </trkpt>
      <trkpt lat="48.65238" lon="-1.97292">
        <ele>31.86</ele>
        <time>2021-07-31T14:27:21Z</time>
      </trkpt>
      <trkpt lat="48.65245" lon="-1.97289">
        <ele>31.86</ele>
        <time>2021-07-31T14:27:22Z</time>
      </trkpt>
      <trkpt lat="48.65258" lon="-1.97284">
        <ele>31.86</ele>
        <time>2021-07-31T14:27:23Z</time>
      </trkpt>
      <trkpt lat="48.65258" lon="-1.97284">
        <ele>31.86</ele>
        <time>2021-07-31T14:27:24Z</time>
      </trkpt>
      <trkpt lat="48.65261" lon="-1.97284">
        <ele>31.38</ele>
        <time>2021-07-31T14:27:25Z</time>
      </trkpt>
      <trkpt lat="48.65279" lon="-1.97312">
        <ele>31.86</ele>
        <time>2021-07-31T14:27:27Z</time>
      </trkpt>
      <trkpt lat="48.65286" lon="-1.97313">
        <ele>31.86</ele>
        <time>2021-07-31T14:27:28Z</time>
      </trkpt>
      <trkpt lat="48.65286" lon="-1.97313">
        <ele>31.86</ele>
        <time>2021-07-31T14:27:29Z</time>
      </trkpt>
      <trkpt lat="48.65304" lon="-1.97318">
        <ele>31.86</ele>
        <time>2021-07-31T14:27:30Z</time>
      </trkpt>
      <trkpt lat="48.65304" lon="-1.97318">
        <ele>30.9</ele>
        <time>2021-07-31T14:27:31Z</time>
      </trkpt>
      <trkpt lat="48.65468" lon="-1.97369">
        <ele>28.5</ele>
        <time>2021-07-31T14:27:48Z</time>
      </trkpt>
      <trkpt lat="48.6554" lon="-1.97388">
        <ele>27.53</ele>
        <time>2021-07-31T14:27:58Z</time>
      </trkpt>
      <trkpt lat="48.65634" lon="-1.97415">
        <ele>27.53</ele>
        <time>2021-07-31T14:28:10Z</time>
      </trkpt>
      <trkpt lat="48.65664" lon="-1.97426">
        <ele>28.5</ele>
        <time>2021-07-31T14:28:17Z</time>
      </trkpt>
      <trkpt lat="48.65684" lon="-1.97436">
        <ele>28.02</ele>
        <time>2021-07-31T14:28:27Z</time>
      </trkpt>
      <trkpt lat="48.65734" lon="-1.97484">
        <ele>27.05</ele>
        <time>2021-07-31T14:28:35Z</time>
      </trkpt>
      <trkpt lat="48.65742" lon="-1.97491">
        <ele>27.05</ele>
        <time>2021-07-31T14:28:36Z</time>
      </trkpt>
      <trkpt lat="48.65847" lon="-1.97561">
        <ele>24.65</ele>
        <time>2021-07-31T14:28:48Z</time>
      </trkpt>
      <trkpt lat="48.65973" lon="-1.9765">
        <ele>18.88</ele>
        <time>2021-07-31T14:29:01Z</time>
      </trkpt>
      <trkpt lat="48.6608" lon="-1.97699">
        <ele>13.12</ele>
        <time>2021-07-31T14:29:13Z</time>
      </trkpt>
      <trkpt lat="48.66133" lon="-1.97722">
        <ele>14.56</ele>
        <time>2021-07-31T14:29:20Z</time>
      </trkpt>
      <trkpt lat="48.66137" lon="-1.97724">
        <ele>15.04</ele>
        <time>2021-07-31T14:29:21Z</time>
      </trkpt>
      <trkpt lat="48.66137" lon="-1.97724">
        <ele>15.52</ele>
        <time>2021-07-31T14:29:23Z</time>
      </trkpt>
      <trkpt lat="48.66137" lon="-1.97724">
        <ele>15.52</ele>
        <time>2021-07-31T14:29:25Z</time>
      </trkpt>
      <trkpt lat="48.66175" lon="-1.97735">
        <ele>15.04</ele>
        <time>2021-07-31T14:29:27Z</time>
      </trkpt>
      <trkpt lat="48.66298" lon="-1.97739">
        <ele>12.15</ele>
        <time>2021-07-31T14:29:39Z</time>
      </trkpt>
      <trkpt lat="48.66411" lon="-1.9778">
        <ele>15.52</ele>
        <time>2021-07-31T14:29:49Z</time>
      </trkpt>
      <trkpt lat="48.66542" lon="-1.97844">
        <ele>15.04</ele>
        <time>2021-07-31T14:30:01Z</time>
      </trkpt>
      <trkpt lat="48.66624" lon="-1.97909">
        <ele>13.6</ele>
        <time>2021-07-31T14:30:09Z</time>
      </trkpt>
      <trkpt lat="48.66665" lon="-1.97919">
        <ele>11.67</ele>
        <time>2021-07-31T14:30:17Z</time>
      </trkpt>
      <trkpt lat="48.66768" lon="-1.97958">
        <ele>8.79</ele>
        <time>2021-07-31T14:30:29Z</time>
      </trkpt>
      <trkpt lat="48.66846" lon="-1.98001">
        <ele>13.12</ele>
        <time>2021-07-31T14:30:40Z</time>
      </trkpt>
      <trkpt lat="48.66868" lon="-1.98017">
        <ele>20.81</ele>
        <time>2021-07-31T14:30:50Z</time>
      </trkpt>
      <trkpt lat="48.6691" lon="-1.9807">
        <ele>20.32</ele>
        <time>2021-07-31T14:30:58Z</time>
      </trkpt>
      <trkpt lat="48.67002" lon="-1.98187">
        <ele>20.81</ele>
        <time>2021-07-31T14:31:09Z</time>
      </trkpt>
      <trkpt lat="48.67067" lon="-1.98272">
        <ele>18.88</ele>
        <time>2021-07-31T14:31:19Z</time>
      </trkpt>
      <trkpt lat="48.67071" lon="-1.98278">
        <ele>18.4</ele>
        <time>2021-07-31T14:31:20Z</time>
      </trkpt>
      <trkpt lat="48.6708" lon="-1.98276">
        <ele>17.92</ele>
        <time>2021-07-31T14:31:21Z</time>
      </trkpt>
      <trkpt lat="48.67085" lon="-1.98273">
        <ele>17.92</ele>
        <time>2021-07-31T14:31:22Z</time>
      </trkpt>
      <trkpt lat="48.6709" lon="-1.98271">
        <ele>17.92</ele>
        <time>2021-07-31T14:31:23Z</time>
      </trkpt>
      <trkpt lat="48.67168" lon="-1.98226">
        <ele>19.84</ele>
        <time>2021-07-31T14:31:33Z</time>
      </trkpt>
      <trkpt lat="48.67248" lon="-1.98179">
        <ele>22.73</ele>
        <time>2021-07-31T14:31:41Z</time>
      </trkpt>
      <trkpt lat="48.67326" lon="-1.98136">
        <ele>23.21</ele>
        <time>2021-07-31T14:31:53Z</time>
      </trkpt>
      <trkpt lat="48.67421" lon="-1.9808">
        <ele>23.21</ele>
        <time>2021-07-31T14:32:04Z</time>
      </trkpt>
      <trkpt lat="48.67625" lon="-1.9796">
        <ele>13.6</ele>
        <time>2021-07-31T14:32:29Z</time>
      </trkpt>
      <trkpt lat="48.6771" lon="-1.97927">
        <ele>13.6</ele>
        <time>2021-07-31T14:32:40Z</time>
      </trkpt>
      <trkpt lat="48.67841" lon="-1.97887">
        <ele>16</ele>
        <time>2021-07-31T14:32:52Z</time>
      </trkpt>
      <trkpt lat="48.67851" lon="-1.97882">
        <ele>16.48</ele>
        <time>2021-07-31T14:32:53Z</time>
      </trkpt>
      <trkpt lat="48.6786" lon="-1.97876">
        <ele>16.48</ele>
        <time>2021-07-31T14:32:54Z</time>
      </trkpt>
      <trkpt lat="48.67979" lon="-1.97757">
        <ele>15.52</ele>
        <time>2021-07-31T14:33:07Z</time>
      </trkpt>
      <trkpt lat="48.68011" lon="-1.97715">
        <ele>17.92</ele>
        <time>2021-07-31T14:33:12Z</time>
      </trkpt>
      <trkpt lat="48.68016" lon="-1.97704">
        <ele>17.92</ele>
        <time>2021-07-31T14:33:13Z</time>
      </trkpt>
      <trkpt lat="48.6802" lon="-1.97693">
        <ele>17.44</ele>
        <time>2021-07-31T14:33:14Z</time>
      </trkpt>
      <trkpt lat="48.68025" lon="-1.97682">
        <ele>17.44</ele>
        <time>2021-07-31T14:33:15Z</time>
      </trkpt>
      <trkpt lat="48.68028" lon="-1.9767">
        <ele>17.44</ele>
        <time>2021-07-31T14:33:16Z</time>
      </trkpt>
      <trkpt lat="48.6803" lon="-1.97658">
        <ele>17.44</ele>
        <time>2021-07-31T14:33:17Z</time>
      </trkpt>
      <trkpt lat="48.68047" lon="-1.97505">
        <ele>14.08</ele>
        <time>2021-07-31T14:33:28Z</time>
      </trkpt>
      <trkpt lat="48.6805" lon="-1.9741">
        <ele>12.15</ele>
        <time>2021-07-31T14:33:34Z</time>
      </trkpt>
      <trkpt lat="48.68079" lon="-1.97277">
        <ele>15.04</ele>
        <time>2021-07-31T14:33:44Z</time>
      </trkpt>
      <trkpt lat="48.68119" lon="-1.97138">
        <ele>16.96</ele>
        <time>2021-07-31T14:33:56Z</time>
      </trkpt>
      <trkpt lat="48.6816" lon="-1.96961">
        <ele>15.52</ele>
        <time>2021-07-31T14:34:10Z</time>
      </trkpt>
      <trkpt lat="48.68171" lon="-1.96906">
        <ele>14.56</ele>
        <time>2021-07-31T14:34:15Z</time>
      </trkpt>
      <trkpt lat="48.68173" lon="-1.96898">
        <ele>14.08</ele>
        <time>2021-07-31T14:34:16Z</time>
      </trkpt>
      <trkpt lat="48.68174" lon="-1.96892">
        <ele>13.6</ele>
        <time>2021-07-31T14:34:17Z</time>
      </trkpt>
      <trkpt lat="48.68175" lon="-1.96888">
        <ele>13.6</ele>
        <time>2021-07-31T14:34:18Z</time>
      </trkpt>
      <trkpt lat="48.68177" lon="-1.96876">
        <ele>14.08</ele>
        <time>2021-07-31T14:34:28Z</time>
      </trkpt>
      <trkpt lat="48.68182" lon="-1.96815">
        <ele>16.48</ele>
        <time>2021-07-31T14:34:44Z</time>
      </trkpt>
      <trkpt lat="48.68182" lon="-1.9681">
        <ele>16.48</ele>
        <time>2021-07-31T14:34:49Z</time>
      </trkpt>
      <trkpt lat="48.68182" lon="-1.96807">
        <ele>16</ele>
        <time>2021-07-31T14:34:50Z</time>
      </trkpt>
      <trkpt lat="48.68189" lon="-1.968">
        <ele>16.48</ele>
        <time>2021-07-31T14:34:51Z</time>
      </trkpt>
      <trkpt lat="48.68192" lon="-1.96799">
        <ele>16.48</ele>
        <time>2021-07-31T14:34:52Z</time>
      </trkpt>
      <trkpt lat="48.68196" lon="-1.96798">
        <ele>16</ele>
        <time>2021-07-31T14:34:53Z</time>
      </trkpt>
      <trkpt lat="48.68205" lon="-1.96795">
        <ele>16</ele>
        <time>2021-07-31T14:34:54Z</time>
      </trkpt>
      <trkpt lat="48.68231" lon="-1.96791">
        <ele>16.96</ele>
        <time>2021-07-31T14:35:00Z</time>
      </trkpt>
      <trkpt lat="48.68249" lon="-1.96786">
        <ele>16</ele>
        <time>2021-07-31T14:35:05Z</time>
      </trkpt>
      <trkpt lat="48.68257" lon="-1.96783">
        <ele>16</ele>
        <time>2021-07-31T14:35:07Z</time>
      </trkpt>
      <trkpt lat="48.68262" lon="-1.96782">
        <ele>16</ele>
        <time>2021-07-31T14:35:08Z</time>
      </trkpt>
      <trkpt lat="48.68267" lon="-1.9678">
        <ele>16</ele>
        <time>2021-07-31T14:35:09Z</time>
      </trkpt>
      <trkpt lat="48.68271" lon="-1.96779">
        <ele>16</ele>
        <time>2021-07-31T14:35:10Z</time>
      </trkpt>
      <trkpt lat="48.68274" lon="-1.96778">
        <ele>16</ele>
        <time>2021-07-31T14:35:11Z</time>
      </trkpt>
      <trkpt lat="48.68289" lon="-1.96771">
        <ele>14.08</ele>
        <time>2021-07-31T14:35:19Z</time>
      </trkpt>
      <trkpt lat="48.68289" lon="-1.96771">
        <ele>13.6</ele>
        <time>2021-07-31T14:35:20Z</time>
      </trkpt>
      <trkpt lat="48.68292" lon="-1.96763">
        <ele>13.6</ele>
        <time>2021-07-31T14:35:21Z</time>
      </trkpt>
      <trkpt lat="48.68292" lon="-1.96763">
        <ele>13.6</ele>
        <time>2021-07-31T14:35:22Z</time>
      </trkpt>
      <trkpt lat="48.68293" lon="-1.96758">
        <ele>14.56</ele>
        <time>2021-07-31T14:35:23Z</time>
      </trkpt>
      <trkpt lat="48.68294" lon="-1.96751">
        <ele>15.04</ele>
        <time>2021-07-31T14:35:24Z</time>
      </trkpt>
      <trkpt lat="48.68295" lon="-1.96729">
        <ele>15.52</ele>
        <time>2021-07-31T14:35:27Z</time>
      </trkpt>
      <trkpt lat="48.68296" lon="-1.96722">
        <ele>16</ele>
        <time>2021-07-31T14:35:28Z</time>
      </trkpt>
      <trkpt lat="48.68296" lon="-1.96717">
        <ele>16</ele>
        <time>2021-07-31T14:35:29Z</time>
      </trkpt>
      <trkpt lat="48.68296" lon="-1.96713">
        <ele>16.48</ele>
        <time>2021-07-31T14:35:36Z</time>
      </trkpt>
      <trkpt lat="48.68297" lon="-1.9671">
        <ele>16.48</ele>
        <time>2021-07-31T14:35:37Z</time>
      </trkpt>
      <trkpt lat="48.68298" lon="-1.967">
        <ele>16.96</ele>
        <time>2021-07-31T14:35:38Z</time>
      </trkpt>
      <trkpt lat="48.683" lon="-1.96699">
        <ele>16.96</ele>
        <time>2021-07-31T14:35:39Z</time>
      </trkpt>
      <trkpt lat="48.68301" lon="-1.96699">
        <ele>17.44</ele>
        <time>2021-07-31T14:35:40Z</time>
      </trkpt>
      <trkpt lat="48.68304" lon="-1.96698">
        <ele>18.88</ele>
        <time>2021-07-31T14:35:52Z</time>
      </trkpt>
      <trkpt lat="48.68304" lon="-1.96698">
        <ele>18.88</ele>
        <time>2021-07-31T14:36:00Z</time>
      </trkpt>
      <trkpt lat="48.68304" lon="-1.96698">
        <ele>18.88</ele>
        <time>2021-07-31T14:36:01Z</time>
      </trkpt>
      <trkpt lat="48.68304" lon="-1.96698">
        <ele>18.88</ele>
        <time>2021-07-31T14:36:20Z</time>
      </trkpt>
      <trkpt lat="48.68304" lon="-1.96698">
        <ele>18.88</ele>
        <time>2021-07-31T14:36:39Z</time>
      </trkpt>
      <trkpt lat="48.68304" lon="-1.96698">
        <ele>19.36</ele>
        <time>2021-07-31T14:37:11Z</time>
      </trkpt>
      <trkpt lat="48.68304" lon="-1.96698">
        <ele>19.84</ele>
        <time>2021-07-31T14:38:19Z</time>
      </trkpt>
      <trkpt lat="48.68304" lon="-1.96698">
        <ele>19.84</ele>
        <time>2021-07-31T14:40:09Z</time>
      </trkpt>
    </trkseg>
  </trk>
</gpx>